Time;durP1;ratioP1;P1;durP2;ratioP2;P2;SDS_P1;SDS_P2;PMS_P1;PMS_P2;Temp;Humidity;BMP_temperature;BMP_pressure;BME280_temperature;BME280_humidity;BME280_pressure;Samples;Min_cycle;Max_cycle;Signal;HPM_P1;HPM_P2
2022/01/23 00:02:26;;;;;;;59.45;40.38;;;5.90;89.10;;;;;;5049556;28;20115;-80
2022/01/23 00:04:52;;;;;;;61.90;41.70;;;6.00;89.10;;;;;;5052327;28;20433;-81
2022/01/23 00:07:18;;;;;;;59.88;41.67;;;6.00;89.10;;;;;;5042749;28;20040;-81
2022/01/23 00:09:44;;;;;;;57.35;41.25;;;5.90;89.00;;;;;;5042068;28;21047;-79
2022/01/23 00:12:15;;;;;;;56.95;40.08;;;6.00;89.00;;;;;;5050321;28;20037;-81
2022/01/23 00:17:32;;;;;;;54.10;38.67;;;6.00;89.00;;;;;;5044040;28;20767;-80
2022/01/23 00:19:58;;;;;;;58.45;40.05;;;6.00;89.00;;;;;;5048565;28;20044;-79
2022/01/23 00:22:32;;;;;;;60.50;39.80;;;6.00;89.10;;;;;;5049010;28;20055;-80
2022/01/23 00:30:29;;;;;;;56.50;38.88;;;5.90;89.00;;;;;;5049412;28;20043;-81
2022/01/23 00:32:56;;;;;;;58.55;39.38;;;5.90;89.00;;;;;;5054442;28;20044;-80
2022/01/23 00:35:23;;;;;;;57.58;38.30;;;5.90;89.00;;;;;;5032741;28;20369;-81
2022/01/23 00:37:49;;;;;;;52.55;37.97;;;5.90;89.10;;;;;;5049287;28;20033;-80
2022/01/23 00:40:15;;;;;;;57.55;38.60;;;5.90;89.10;;;;;;5049916;28;20024;-80
2022/01/23 00:42:41;;;;;;;56.45;39.58;;;5.90;89.10;;;;;;5048566;28;20032;-81
2022/01/23 00:48:06;;;;;;;53.22;37.28;;;6.00;89.20;;;;;;5048283;28;20044;-81
2022/01/23 00:50:35;;;;;;;60.05;41.13;;;6.00;89.20;;;;;;5035842;28;20048;-80
2022/01/23 00:53:03;;;;;;;54.45;37.88;;;5.90;89.20;;;;;;5045816;28;20041;-80
2022/01/23 00:55:28;;;;;;;59.15;40.25;;;5.90;89.20;;;;;;5045394;28;20047;-81
2022/01/23 00:57:54;;;;;;;57.35;39.30;;;6.00;89.30;;;;;;5045184;28;20050;-81
2022/01/23 01:00:21;;;;;;;59.92;42.80;;;5.90;89.30;;;;;;5045824;28;20350;-81
2022/01/23 01:02:47;;;;;;;56.83;39.60;;;6.00;89.30;;;;;;5037704;28;20029;-81
2022/01/23 01:05:13;;;;;;;56.22;38.95;;;6.00;89.10;;;;;;5043227;28;20037;-81
2022/01/23 01:07:39;;;;;;;61.58;40.30;;;5.90;89.10;;;;;;5044630;28;20029;-81
2022/01/23 01:10:11;;;;;;;59.80;40.90;;;5.90;89.10;;;;;;5045806;28;20037;-80
2022/01/23 01:12:41;;;;;;;58.15;39.65;;;5.90;89.10;;;;;;5042174;28;20037;-80
2022/01/23 01:34:07;;;;;;;57.97;40.10;;;5.90;89.20;;;;;;5050816;28;20614;-80
2022/01/23 01:38:59;;;;;;;58.78;38.72;;;5.90;89.30;;;;;;5044376;28;20041;-80
2022/01/23 01:41:26;;;;;;;59.70;40.63;;;5.90;89.30;;;;;;5044489;28;20055;-80
2022/01/23 01:43:53;;;;;;;58.67;39.15;;;5.90;89.30;;;;;;5044041;28;20060;-80
2022/01/23 01:46:19;;;;;;;59.13;39.08;;;5.90;89.30;;;;;;5047765;28;20028;-80
2022/01/23 01:48:44;;;;;;;57.85;39.55;;;5.90;89.30;;;;;;5027771;28;20037;-80
2022/01/23 01:51:16;;;;;;;58.33;40.17;;;5.90;89.40;;;;;;5052269;28;20535;-80
2022/01/23 01:53:50;;;;;;;58.95;39.00;;;5.90;89.10;;;;;;5055571;28;20044;-79
2022/01/23 01:56:16;;;;;;;57.78;40.78;;;5.90;89.20;;;;;;5034806;28;20474;-80
2022/01/23 02:14:37;;;;;;;55.50;37.30;;;5.90;89.20;;;;;;5055346;28;20063;-80
2022/01/23 02:17:18;;;;;;;59.28;40.10;;;5.90;89.20;;;;;;5050572;28;20024;-80
2022/01/23 02:25:27;;;;;;;57.17;39.60;;;5.90;89.30;;;;;;5057234;28;20468;-81
2022/01/23 02:53:16;;;;;;;56.97;37.13;;;5.80;89.10;;;;;;5061642;28;20627;-80
2022/01/23 02:55:42;;;;;;;51.05;35.28;;;5.80;89.00;;;;;;5062519;28;20037;-79
2022/01/23 02:58:11;;;;;;;53.83;36.38;;;5.80;89.20;;;;;;5057975;28;20036;-80
2022/01/23 03:00:48;;;;;;;55.90;37.75;;;5.80;89.20;;;;;;5059678;28;20036;-79
2022/01/23 03:03:21;;;;;;;48.95;34.25;;;5.70;88.90;;;;;;5056852;28;20612;-80
2022/01/23 03:06:07;;;;;;;50.33;35.88;;;5.70;89.10;;;;;;5058125;28;20043;-80
2022/01/23 03:08:55;;;;;;;56.60;37.40;;;5.70;89.10;;;;;;5056113;28;20484;-80
2022/01/23 03:30:14;;;;;;;54.97;37.35;;;5.70;89.20;;;;;;5058735;28;20036;-80
2022/01/23 03:32:44;;;;;;;52.33;35.72;;;5.80;89.20;;;;;;5053288;28;20056;-80
2022/01/23 03:35:10;;;;;;;55.60;37.22;;;5.80;89.20;;;;;;5055804;28;20024;-80
2022/01/23 03:37:36;;;;;;;53.58;34.90;;;5.80;89.30;;;;;;5056464;28;20353;-80
2022/01/23 03:40:03;;;;;;;54.38;37.65;;;5.80;89.20;;;;;;5037614;28;20119;-80
2022/01/23 03:42:32;;;;;;;52.72;35.08;;;5.80;89.20;;;;;;5054336;28;20039;-81
2022/01/23 03:45:29;;;;;;;52.00;34.58;;;5.80;89.30;;;;;;5046063;28;20041;-81
2022/01/23 03:49:29;;;;;;;53.20;36.30;;;5.80;89.30;;;;;;5051817;28;20551;-81
2022/01/23 03:50:42;;;;;;;49.55;34.35;;;5.80;89.20;;;;;;5052285;28;20099;-81
2022/01/23 03:53:08;;;;;;;55.88;36.88;;;5.80;89.20;;;;;;5027373;28;20624;-80
2022/01/23 03:55:34;;;;;;;51.38;35.92;;;5.80;89.30;;;;;;5056566;28;20120;-80
2022/01/23 03:58:00;;;;;;;51.63;35.05;;;5.80;89.30;;;;;;5038367;28;20029;-80
2022/01/23 04:00:25;;;;;;;53.05;36.75;;;5.80;89.30;;;;;;5049743;28;20380;-80
2022/01/23 04:02:51;;;;;;;52.53;35.85;;;5.80;89.30;;;;;;5044455;28;20036;-81
2022/01/23 04:05:17;;;;;;;55.03;38.55;;;5.80;89.40;;;;;;5057747;28;20593;-80
2022/01/23 04:07:43;;;;;;;51.40;36.00;;;5.80;89.30;;;;;;5056637;28;20040;-81
2022/01/23 04:10:12;;;;;;;50.05;35.53;;;5.70;89.30;;;;;;5037711;28;20040;-80
2022/01/23 04:12:50;;;;;;;50.40;34.75;;;5.80;89.40;;;;;;5032928;28;20467;-80
2022/01/23 04:18:50;;;;;;;51.22;34.83;;;5.80;89.40;;;;;;5056610;28;20135;-80
2022/01/23 04:32:06;;;;;;;49.08;33.58;;;5.80;89.10;;;;;;5050155;28;20452;-80
2022/01/23 05:01:32;;;;;;;51.70;36.88;;;5.80;89.20;;;;;;5052885;28;20598;-81
2022/01/23 05:04:19;;;;;;;55.75;36.03;;;5.80;89.20;;;;;;5053252;28;20048;-81
2022/01/23 05:06:49;;;;;;;49.30;34.13;;;5.80;89.00;;;;;;5049073;28;20044;-80
2022/01/23 05:09:15;;;;;;;52.30;34.88;;;5.80;89.10;;;;;;5037892;28;20127;-80
2022/01/23 05:11:49;;;;;;;51.50;35.53;;;5.80;89.10;;;;;;5053872;28;20052;-81
2022/01/23 05:14:17;;;;;;;49.50;35.22;;;5.70;89.20;;;;;;5052672;28;20060;-79
2022/01/23 05:16:43;;;;;;;50.45;35.13;;;5.80;89.20;;;;;;5055332;28;20021;-80
2022/01/23 05:19:09;;;;;;;48.60;35.70;;;5.80;89.20;;;;;;5052718;28;20039;-80
2022/01/23 05:21:54;;;;;;;47.17;33.92;;;5.80;89.20;;;;;;5048374;28;20029;-81
2022/01/23 05:24:25;;;;;;;44.88;32.80;;;5.80;89.20;;;;;;5054749;28;20115;-81
2022/01/23 05:26:50;;;;;;;50.58;34.65;;;5.80;89.20;;;;;;5049003;28;20048;-80
2022/01/23 05:29:16;;;;;;;50.85;34.42;;;5.80;89.20;;;;;;5031862;28;20040;-80
2022/01/23 05:31:42;;;;;;;49.95;33.80;;;5.90;89.10;;;;;;5043250;28;20045;-80
2022/01/23 05:34:08;;;;;;;52.40;35.25;;;5.80;89.00;;;;;;5054491;28;20040;-79
2022/01/23 05:36:34;;;;;;;49.55;33.33;;;5.70;88.80;;;;;;5048852;28;20028;-79
2022/01/23 05:39:00;;;;;;;49.97;33.20;;;5.70;88.90;;;;;;5053296;28;20036;-80
2022/01/23 05:41:26;;;;;;;47.17;33.90;;;5.80;89.00;;;;;;5055168;28;20562;-81
2022/01/23 05:43:52;;;;;;;47.83;35.78;;;5.80;89.00;;;;;;5059733;28;20036;-80
2022/01/23 05:46:17;;;;;;;46.65;33.53;;;5.80;88.90;;;;;;5056690;28;20464;-80
2022/01/23 05:48:43;;;;;;;49.85;34.30;;;5.80;89.00;;;;;;5051643;28;20344;-81
2022/01/23 05:51:12;;;;;;;49.78;34.55;;;5.80;89.00;;;;;;5051866;28;20045;-81
2022/01/23 05:53:39;;;;;;;47.70;33.55;;;5.80;89.00;;;;;;5055817;28;20122;-81
2022/01/23 05:56:05;;;;;;;46.78;32.50;;;5.70;89.00;;;;;;5053868;28;20033;-80
2022/01/23 05:58:30;;;;;;;44.97;31.95;;;5.70;89.00;;;;;;5038560;28;20040;-81
2022/01/23 06:00:56;;;;;;;46.70;33.17;;;5.80;89.00;;;;;;5055599;28;20570;-80
2022/01/23 06:03:22;;;;;;;47.45;33.05;;;5.80;89.10;;;;;;5044091;28;20029;-80
2022/01/23 06:05:48;;;;;;;48.00;33.53;;;5.80;89.10;;;;;;5051761;28;20109;-80
2022/01/23 06:08:13;;;;;;;45.83;33.55;;;5.80;89.00;;;;;;5061771;28;20089;-81
2022/01/23 06:10:57;;;;;;;44.85;31.67;;;5.80;89.00;;;;;;5040763;28;20380;-81
2022/01/23 06:13:25;;;;;;;48.50;33.90;;;5.80;89.10;;;;;;5041965;28;20058;-81
2022/01/23 06:15:52;;;;;;;49.65;35.42;;;5.80;89.10;;;;;;5056116;28;20048;-80
2022/01/23 06:18:18;;;;;;;51.08;33.70;;;5.80;89.00;;;;;;5057375;28;20021;-81
2022/01/23 06:20:44;;;;;;;47.83;33.63;;;5.80;89.00;;;;;;5059425;28;20025;-80
2022/01/23 06:23:10;;;;;;;47.20;32.90;;;5.80;89.00;;;;;;5057405;28;20033;-81
2022/01/23 06:25:37;;;;;;;48.67;34.60;;;5.80;89.00;;;;;;5057674;28;20037;-80
2022/01/23 06:28:05;;;;;;;45.75;32.60;;;5.80;89.00;;;;;;5058628;28;20273;-81
2022/01/23 06:30:32;;;;;;;48.45;33.83;;;5.80;89.00;;;;;;5060558;28;20033;-80
2022/01/23 06:32:57;;;;;;;47.42;34.35;;;5.80;89.00;;;;;;5054949;28;20486;-81
2022/01/23 06:35:23;;;;;;;49.00;34.17;;;5.80;89.00;;;;;;5058890;28;20040;-79
2022/01/23 06:37:49;;;;;;;51.38;34.33;;;5.90;89.00;;;;;;5056341;28;20037;-79
2022/01/23 06:40:15;;;;;;;45.22;32.10;;;5.80;89.00;;;;;;5056129;28;20055;-80
2022/01/23 06:42:42;;;;;;;50.08;34.58;;;5.80;89.00;;;;;;5058121;28;20575;-80
2022/01/23 06:45:08;;;;;;;47.83;33.78;;;5.80;89.00;;;;;;5055727;28;20135;-80
2022/01/23 06:47:33;;;;;;;49.35;33.10;;;5.80;88.90;;;;;;5041571;28;20037;-81
2022/01/23 06:49:59;;;;;;;48.38;34.65;;;5.80;88.80;;;;;;5058106;28;20037;-81
2022/01/23 06:52:25;;;;;;;47.25;33.47;;;5.80;88.80;;;;;;5053902;28;20418;-81
2022/01/23 06:54:51;;;;;;;47.20;34.00;;;5.80;88.70;;;;;;5057099;28;20049;-80
2022/01/23 06:57:16;;;;;;;49.08;35.35;;;5.80;88.80;;;;;;5056974;28;20102;-80
2022/01/23 06:59:42;;;;;;;45.78;33.53;;;5.80;88.80;;;;;;5053741;28;20467;-80
2022/01/23 07:02:08;;;;;;;49.92;36.05;;;5.80;88.80;;;;;;5037324;28;20161;-79
2022/01/23 07:04:34;;;;;;;48.55;34.33;;;5.80;88.80;;;;;;5053876;28;20040;-80
2022/01/23 07:07:00;;;;;;;48.08;33.83;;;5.80;88.80;;;;;;5057534;28;20052;-80
2022/01/23 07:09:25;;;;;;;46.28;34.08;;;5.80;88.80;;;;;;5052673;28;20045;-80
2022/01/23 07:11:52;;;;;;;46.45;33.42;;;5.80;88.90;;;;;;5058695;28;20312;-80
2022/01/23 07:14:17;;;;;;;47.47;33.00;;;5.80;88.90;;;;;;5053256;28;20029;-80
2022/01/23 07:16:43;;;;;;;46.38;33.13;;;5.80;88.80;;;;;;5033483;28;20041;-79
2022/01/23 07:19:09;;;;;;;47.20;34.10;;;5.80;88.90;;;;;;5052362;28;20055;-80
2022/01/23 07:21:35;;;;;;;45.78;33.13;;;5.80;88.90;;;;;;5052586;28;20094;-79
2022/01/23 07:24:00;;;;;;;43.58;31.92;;;5.80;88.80;;;;;;5050899;28;20027;-81
2022/01/23 07:26:27;;;;;;;47.70;35.15;;;5.80;88.80;;;;;;5027012;28;20395;-81
2022/01/23 07:28:56;;;;;;;61.30;48.15;;;5.80;88.70;;;;;;5043381;28;20488;-80
2022/01/23 07:34:02;;;;;;;46.70;34.42;;;5.70;88.10;;;;;;5052940;28;20033;-81
2022/01/23 07:36:28;;;;;;;46.72;35.22;;;5.70;88.30;;;;;;5053875;28;20067;-81
2022/01/23 07:38:54;;;;;;;54.17;40.33;;;5.70;88.30;;;;;;5059546;28;20127;-80
2022/01/23 07:41:20;;;;;;;49.90;37.60;;;5.70;88.40;;;;;;5042177;28;20044;-80
2022/01/23 07:43:45;;;;;;;49.42;37.20;;;5.80;88.50;;;;;;5035556;28;20040;-81
2022/01/23 07:46:11;;;;;;;47.95;35.38;;;5.80;88.60;;;;;;5055643;28;20482;-81
2022/01/23 07:48:37;;;;;;;48.70;35.15;;;5.80;88.60;;;;;;5047345;28;20535;-81
2022/01/23 07:51:02;;;;;;;46.35;33.38;;;5.80;88.40;;;;;;5032843;28;20078;-81
2022/01/23 07:53:28;;;;;;;46.95;34.13;;;5.80;88.50;;;;;;5051138;28;20084;-81
2022/01/23 07:55:54;;;;;;;44.17;33.42;;;5.80;88.30;;;;;;5052347;28;20043;-80
2022/01/23 07:58:19;;;;;;;45.22;32.25;;;5.90;88.00;;;;;;5046433;28;20131;-81
2022/01/23 08:00:47;;;;;;;46.85;34.90;;;5.90;88.10;;;;;;5043779;28;20109;-80
2022/01/23 08:03:13;;;;;;;47.78;35.80;;;5.80;87.90;;;;;;5039865;28;20040;-80
2022/01/23 08:05:39;;;;;;;46.22;34.30;;;5.80;87.80;;;;;;5044447;28;20036;-79
2022/01/23 08:08:05;;;;;;;46.88;34.70;;;5.80;87.80;;;;;;5039980;28;20117;-80
2022/01/23 08:10:30;;;;;;;50.50;34.25;;;5.80;88.00;;;;;;5045486;28;20102;-79
2022/01/23 08:12:56;;;;;;;47.13;32.65;;;5.90;88.00;;;;;;5041935;28;20044;-80
2022/01/23 08:15:22;;;;;;;48.10;33.95;;;5.90;88.00;;;;;;5044358;28;20109;-80
2022/01/23 08:17:47;;;;;;;44.78;31.90;;;5.80;87.80;;;;;;5043377;28;20456;-80
2022/01/23 08:20:13;;;;;;;44.45;31.58;;;5.90;87.80;;;;;;5044062;28;20055;-74
2022/01/23 08:22:39;;;;;;;45.25;31.65;;;5.80;87.70;;;;;;5047876;28;20051;-72
2022/01/23 08:25:05;;;;;;;42.83;31.02;;;5.80;87.80;;;;;;5045347;28;20135;-72
2022/01/23 08:27:32;;;;;;;45.20;30.33;;;5.90;87.80;;;;;;5044250;28;20020;-72
2022/01/23 08:29:58;;;;;;;41.92;29.83;;;5.90;87.70;;;;;;5032133;28;20028;-73
2022/01/23 08:32:24;;;;;;;44.30;31.15;;;5.90;87.60;;;;;;5041960;28;20070;-72
2022/01/23 08:34:51;;;;;;;41.33;30.05;;;5.90;87.70;;;;;;5049429;28;20123;-71
2022/01/23 08:37:17;;;;;;;45.25;30.17;;;5.90;87.70;;;;;;5043126;28;20059;-72
2022/01/23 08:39:43;;;;;;;38.97;28.77;;;6.00;87.70;;;;;;5040409;28;20063;-72
2022/01/23 08:42:12;;;;;;;41.38;29.70;;;6.00;87.80;;;;;;5043834;28;20028;-72
2022/01/23 08:44:37;;;;;;;40.83;31.30;;;6.10;87.80;;;;;;5043897;28;20044;-73
2022/01/23 08:47:05;;;;;;;49.58;34.53;;;6.10;87.80;;;;;;5028763;28;20403;-71
2022/01/23 08:49:31;;;;;;;64.97;45.22;;;6.10;87.80;;;;;;5043942;28;20051;-71
2022/01/23 08:51:58;;;;;;;57.33;41.22;;;6.10;87.80;;;;;;5048209;28;20045;-72
2022/01/23 08:54:26;;;;;;;53.20;36.80;;;6.10;87.60;;;;;;5046629;28;20102;-72
2022/01/23 08:56:52;;;;;;;50.40;37.42;;;6.10;87.40;;;;;;5040884;28;20420;-73
2022/01/23 08:59:17;;;;;;;44.10;33.92;;;6.10;87.40;;;;;;5045070;28;20077;-73
2022/01/23 09:01:43;;;;;;;46.38;34.55;;;6.10;87.30;;;;;;5048137;28;20028;-72
2022/01/23 09:04:12;;;;;;;44.55;32.22;;;6.10;87.10;;;;;;5049856;28;20086;-73
2022/01/23 09:06:37;;;;;;;46.47;32.45;;;6.10;87.00;;;;;;5051661;28;20028;-73
2022/01/23 09:09:05;;;;;;;40.75;30.30;;;6.10;87.00;;;;;;5043383;28;20020;-73
2022/01/23 09:14:10;;;;;;;38.17;29.33;;;6.10;86.80;;;;;;5044001;28;20594;-72
2022/01/23 09:16:45;;;;;;;40.35;29.20;;;6.10;86.70;;;;;;5041344;28;20036;-71
2022/01/23 09:19:11;;;;;;;41.90;32.08;;;6.10;86.40;;;;;;5045265;28;20056;-72
2022/01/23 09:21:38;;;;;;;44.60;34.00;;;6.20;86.40;;;;;;5043620;28;20115;-72
2022/01/23 09:24:05;;;;;;;41.78;31.50;;;6.20;86.20;;;;;;5046698;28;20025;-74
2022/01/23 09:26:31;;;;;;;41.15;29.73;;;6.20;85.90;;;;;;5028916;28;20202;-73
2022/01/23 09:29:00;;;;;;;37.67;27.95;;;6.30;85.90;;;;;;5045004;28;20049;-73
2022/01/23 09:31:34;;;;;;;39.30;29.10;;;6.30;85.80;;;;;;5046549;28;20523;-72
2022/01/23 09:34:00;;;;;;;38.75;28.60;;;6.30;85.50;;;;;;5044755;28;20478;-73
2022/01/23 09:36:26;;;;;;;38.40;27.52;;;6.30;85.60;;;;;;5048990;28;20033;-72
2022/01/23 09:38:52;;;;;;;42.38;28.67;;;6.30;85.50;;;;;;5050529;28;20468;-72
2022/01/23 09:41:24;;;;;;;40.47;29.25;;;6.30;85.30;;;;;;5052196;28;20078;-72
2022/01/23 09:43:51;;;;;;;38.92;27.33;;;6.40;85.20;;;;;;5056149;28;20051;-71
2022/01/23 09:46:18;;;;;;;41.92;29.77;;;6.40;85.10;;;;;;5044099;28;20036;-72
2022/01/23 09:48:44;;;;;;;41.63;28.58;;;6.40;84.90;;;;;;5046616;28;20142;-72
2022/01/23 09:51:10;;;;;;;40.40;29.45;;;6.50;84.80;;;;;;5046557;28;20123;-69
2022/01/23 09:53:40;;;;;;;37.28;27.17;;;6.50;84.60;;;;;;5049177;28;20051;-70
2022/01/23 09:56:09;;;;;;;39.90;29.58;;;6.50;84.60;;;;;;5042417;28;20500;-70
2022/01/23 09:58:37;;;;;;;44.08;31.05;;;6.50;84.50;;;;;;5041391;28;20052;-71
2022/01/23 10:01:03;;;;;;;38.28;28.88;;;6.60;84.70;;;;;;5041252;28;20136;-72
2022/01/23 10:03:29;;;;;;;39.85;28.33;;;6.60;84.50;;;;;;5034901;28;20374;-71
2022/01/23 10:05:56;;;;;;;39.53;29.05;;;6.60;84.40;;;;;;5046359;28;20071;-72
2022/01/23 10:08:28;;;;;;;40.90;28.55;;;6.60;84.30;;;;;;5046634;28;20033;-71
2022/01/23 10:10:56;;;;;;;42.60;31.08;;;6.60;84.30;;;;;;5042805;28;20039;-72
2022/01/23 10:13:23;;;;;;;41.38;28.92;;;6.60;84.20;;;;;;5035121;28;20052;-71
2022/01/23 10:15:49;;;;;;;45.28;31.00;;;6.60;84.30;;;;;;5049027;28;20476;-71
2022/01/23 10:18:17;;;;;;;38.85;29.13;;;6.60;84.20;;;;;;5045914;28;20029;-70
2022/01/23 10:20:45;;;;;;;39.08;28.45;;;6.60;84.00;;;;;;5051444;28;20037;-71
2022/01/23 10:23:12;;;;;;;38.67;29.02;;;6.60;83.90;;;;;;5048844;28;20029;-71
2022/01/23 10:25:43;;;;;;;42.67;29.85;;;6.70;83.90;;;;;;5053519;28;20052;-71
2022/01/23 10:28:17;;;;;;;44.10;31.35;;;6.70;83.50;;;;;;5026221;28;20434;-71
2022/01/23 10:30:49;;;;;;;43.15;30.35;;;6.60;83.40;;;;;;5043218;28;20272;-72
2022/01/23 10:33:16;;;;;;;41.88;29.33;;;6.60;83.50;;;;;;5043752;28;20464;-72
2022/01/23 10:35:57;;;;;;;41.03;28.90;;;6.70;83.30;;;;;;5044826;28;20041;-72
2022/01/23 10:38:26;;;;;;;40.42;29.73;;;6.70;83.40;;;;;;5038938;28;20040;-72
2022/01/23 10:41:26;;;;;;;53.15;39.97;;;6.70;83.00;;;;;;5039907;28;20124;-73
2022/01/23 10:49:58;;;;;;;38.72;27.52;;;6.70;82.70;;;;;;5050414;28;20467;-72
2022/01/23 10:52:33;;;;;;;42.03;28.60;;;6.70;82.90;;;;;;5052758;28;20064;-73
2022/01/23 10:55:04;;;;;;;40.53;28.90;;;6.80;82.60;;;;;;5054612;28;20048;-72
2022/01/23 10:57:35;;;;;;;39.92;27.30;;;6.80;82.30;;;;;;5051802;28;20060;-73
2022/01/23 11:00:05;;;;;;;36.63;26.75;;;6.80;82.10;;;;;;5056659;28;20547;-73
2022/01/23 11:02:31;;;;;;;38.80;28.90;;;6.80;82.20;;;;;;5036673;28;20028;-73
2022/01/23 11:05:04;;;;;;;40.42;28.98;;;6.80;82.40;;;;;;5058043;28;20036;-74
2022/01/23 11:07:32;;;;;;;40.00;29.25;;;6.90;82.40;;;;;;5054317;28;20032;-71
2022/01/23 11:10:18;;;;;;;42.03;30.30;;;6.90;82.10;;;;;;5055478;28;20391;-72
2022/01/23 11:18:30;;;;;;;40.40;30.17;;;6.90;82.20;;;;;;5055370;28;20043;-72
2022/01/23 11:20:55;;;;;;;43.83;30.25;;;6.90;82.30;;;;;;5047539;28;20580;-72
2022/01/23 11:23:30;;;;;;;44.72;32.47;;;7.00;82.30;;;;;;5048827;28;20068;-72
2022/01/23 11:25:56;;;;;;;;;;;7.00;81.90;;;;;;5053823;28;20385;-72
2022/01/23 11:28:38;;;;;;;46.25;30.85;;;6.90;81.70;;;;;;5054599;28;19927;-72
2022/01/23 11:31:10;;;;;;;49.40;31.45;;;6.90;81.40;;;;;;5044602;28;20059;-72
2022/01/23 11:33:36;;;;;;;45.97;32.40;;;7.00;81.40;;;;;;5035687;28;20600;-71
2022/01/23 11:36:03;;;;;;;44.05;30.80;;;7.00;81.60;;;;;;5048559;28;20032;-71
2022/01/23 11:38:29;;;;;;;53.55;37.22;;;7.00;81.60;;;;;;5054222;28;20021;-70
2022/01/23 11:54:49;;;;;;;45.50;30.65;;;6.90;80.80;;;;;;5044980;28;20143;-71
2022/01/23 11:57:36;;;;;;;46.67;30.67;;;6.90;80.90;;;;;;5036565;28;20110;-72
2022/01/23 12:00:05;;;;;;;45.10;32.58;;;6.90;80.90;;;;;;5051609;28;20116;-70
2022/01/23 12:02:39;;;;;;;47.58;32.78;;;6.90;80.40;;;;;;5061153;28;20139;-72
2022/01/23 12:05:17;;;;;;;48.25;33.63;;;6.90;80.30;;;;;;5037533;28;20391;-71
2022/01/23 12:07:46;;;;;;;47.88;32.70;;;6.90;80.50;;;;;;5049867;28;20414;-70
2022/01/23 12:10:20;;;;;;;51.75;35.35;;;6.90;80.50;;;;;;5044458;28;20044;-71
2022/01/23 12:12:49;;;;;;;52.13;33.58;;;6.90;80.70;;;;;;5055668;28;20529;-69
2022/01/23 12:18:18;;;;;;;48.83;35.10;;;6.90;80.70;;;;;;5055210;28;20086;-70
2022/01/23 12:20:46;;;;;;;53.88;35.35;;;6.90;80.90;;;;;;5052752;28;20044;-71
2022/01/23 12:23:12;;;;;;;50.15;35.83;;;6.90;81.20;;;;;;5058443;28;20028;-72
2022/01/23 12:25:47;;;;;;;54.85;38.65;;;7.00;80.90;;;;;;5040039;28;20538;-72
2022/01/23 12:28:12;;;;;;;;;;;6.90;80.80;;;;;;5050589;28;20650;-68
2022/01/23 12:30:40;;;;;;;54.42;37.15;;;6.90;81.00;;;;;;5052897;28;19916;-69
2022/01/23 12:33:19;;;;;;;53.30;34.58;;;6.90;81.20;;;;;;5053964;28;20540;-70
2022/01/23 12:35:48;;;;;;;63.88;43.88;;;7.00;81.00;;;;;;5050542;28;20537;-71
2022/01/23 12:38:14;;;;;;;56.17;38.08;;;7.00;81.10;;;;;;5049078;28;20032;-71
2022/01/23 12:40:49;;;;;;;54.10;35.95;;;7.00;80.80;;;;;;5035330;28;20031;-70
2022/01/23 12:43:24;;;;;;;54.95;37.55;;;7.10;80.50;;;;;;5031696;28;20075;-69
2022/01/23 12:46:42;;;;;;;52.75;35.80;;;7.00;80.70;;;;;;5042959;28;20029;-71
2022/01/23 12:49:47;;;;;;;53.20;35.13;;;7.00;80.90;;;;;;5032423;28;20429;-71
2022/01/23 12:52:19;;;;;;;62.08;39.47;;;7.00;80.80;;;;;;4996549;28;20093;-71
2022/01/23 12:54:48;;;;;;;52.20;36.13;;;7.00;81.00;;;;;;5024572;28;20428;-71
2022/01/23 12:57:16;;;;;;;60.75;38.90;;;7.10;81.00;;;;;;5050700;28;20051;-71
2022/01/23 12:59:50;;;;;;;53.08;36.45;;;7.10;80.60;;;;;;5034941;28;20028;-71
2022/01/23 13:02:18;;;;;;;58.28;39.72;;;7.10;81.00;;;;;;5046398;28;20056;-71
2022/01/23 13:04:47;;;;;;;56.47;38.55;;;7.10;80.90;;;;;;5049437;28;20029;-71
2022/01/23 13:07:22;;;;;;;54.47;36.58;;;7.20;80.90;;;;;;5048155;28;20025;-71
2022/01/23 13:15:25;;;;;;;54.05;36.83;;;7.20;80.20;;;;;;5050004;28;20426;-70
2022/01/23 13:18:10;;;;;;;61.78;40.83;;;7.20;79.70;;;;;;5049733;28;20028;-71
2022/01/23 13:34:56;;;;;;;55.75;37.20;;;7.10;79.30;;;;;;5052986;28;20185;-70
2022/01/23 13:37:23;;;;;;;;;;;7.10;79.30;;;;;;5039219;28;20036;-70
2022/01/23 13:39:59;;;;;;;60.40;39.38;;;7.10;79.30;;;;;;5046135;28;19912;-71
2022/01/23 13:42:51;;;;;;;56.15;38.22;;;7.10;79.30;;;;;;5046487;28;20041;-71
2022/01/23 13:59:24;;;;;;;;;;;7.20;79.20;;;;;;5042663;28;20139;-71
2022/01/23 14:02:07;;;;;;;62.85;40.13;;;7.20;79.40;;;;;;5038940;28;19921;-70
2022/01/23 14:04:40;;;;;;;61.17;40.05;;;7.20;79.10;;;;;;5046400;28;20148;-70
2022/01/23 14:07:06;;;;;;;65.70;39.70;;;7.10;78.30;;;;;;5044292;28;20040;-71
2022/01/23 14:09:43;;;;;;;58.15;40.15;;;7.00;78.60;;;;;;5044027;28;20106;-71
2022/01/23 14:12:14;;;;;;;63.33;41.03;;;7.00;78.80;;;;;;5035401;28;20077;-71
2022/01/23 14:15:05;;;;;;;56.47;37.38;;;7.00;78.90;;;;;;5042539;28;20702;-69
2022/01/23 14:17:36;;;;;;;62.47;40.70;;;7.00;78.90;;;;;;5038070;28;20091;-70
2022/01/23 14:20:14;;;;;;;61.60;40.03;;;7.00;78.80;;;;;;5043432;28;20097;-71
2022/01/23 14:22:42;;;;;;;56.13;37.63;;;7.00;78.50;;;;;;5043280;28;20025;-71
2022/01/23 14:25:14;;;;;;;59.53;39.90;;;7.00;79.00;;;;;;5038321;28;20033;-71
2022/01/23 14:28:02;;;;;;;65.93;43.47;;;7.00;78.80;;;;;;5043524;28;20127;-71
2022/01/23 14:30:29;;;;;;;58.70;39.28;;;6.90;79.00;;;;;;5044031;28;20153;-71
2022/01/23 14:33:06;;;;;;;63.85;41.90;;;6.90;78.80;;;;;;5045821;28;20102;-71
2022/01/23 14:35:33;;;;;;;59.85;39.30;;;6.90;79.10;;;;;;5032639;28;20033;-72
2022/01/23 14:38:11;;;;;;;60.63;38.45;;;6.80;79.10;;;;;;5046869;28;20630;-72
2022/01/23 14:40:37;;;;;;;58.80;39.38;;;6.80;79.10;;;;;;5047871;28;20433;-72
2022/01/23 14:43:09;;;;;;;68.80;41.95;;;6.80;79.60;;;;;;5041585;28;20836;-71
2022/01/23 14:45:39;;;;;;;61.72;39.97;;;6.80;79.60;;;;;;5043080;28;20047;-72
2022/01/23 14:48:07;;;;;;;59.55;38.10;;;6.80;79.50;;;;;;5048280;28;20322;-73
2022/01/23 14:50:36;;;;;;;62.45;40.97;;;6.70;79.70;;;;;;5047489;28;20090;-73
2022/01/23 14:53:14;;;;;;;63.35;39.90;;;6.70;79.70;;;;;;5046462;28;20044;-71
2022/01/23 14:55:45;;;;;;;65.45;42.03;;;6.70;80.10;;;;;;5049632;28;20028;-72
2022/01/23 14:58:13;;;;;;;60.95;40.22;;;6.70;80.30;;;;;;5043367;28;20039;-71
2022/01/23 15:00:39;;;;;;;61.65;40.97;;;6.60;79.80;;;;;;5018810;28;20108;-71
2022/01/23 15:03:07;;;;;;;60.90;38.78;;;6.60;79.20;;;;;;5031381;28;20152;-71
2022/01/23 15:05:40;;;;;;;50.80;34.28;;;6.50;78.50;;;;;;5047837;28;20582;-71
2022/01/23 15:08:08;;;;;;;52.45;34.10;;;6.50;77.60;;;;;;5022257;28;20032;-71
2022/01/23 15:10:38;;;;;;;54.80;34.72;;;6.50;77.40;;;;;;5047553;28;20134;-71
2022/01/23 15:13:04;;;;;;;59.20;39.53;;;6.50;77.40;;;;;;5049354;28;20245;-71
2022/01/23 15:15:31;;;;;;;53.20;35.22;;;6.50;77.30;;;;;;5050140;28;20189;-71
2022/01/23 15:17:56;;;;;;;56.22;38.72;;;6.50;77.20;;;;;;5048664;28;20033;-71
2022/01/23 15:20:22;;;;;;;56.08;36.75;;;6.50;77.20;;;;;;5053756;28;20056;-71
2022/01/23 15:22:48;;;;;;;54.63;36.60;;;6.50;77.30;;;;;;5053825;28;20543;-71
2022/01/23 15:25:15;;;;;;;53.45;35.25;;;6.50;77.40;;;;;;5053189;28;20639;-71
2022/01/23 15:27:41;;;;;;;56.58;37.42;;;6.50;77.60;;;;;;5058630;28;20036;-71
2022/01/23 15:30:10;;;;;;;52.67;35.70;;;6.60;77.70;;;;;;5037498;28;20062;-71
2022/01/23 15:32:36;;;;;;;57.45;39.92;;;6.50;77.90;;;;;;5034840;28;20392;-71
2022/01/23 15:35:03;;;;;;;55.08;36.70;;;6.60;78.20;;;;;;5051245;28;20028;-72
2022/01/23 15:37:28;;;;;;;56.22;36.47;;;6.60;78.00;;;;;;5052081;28;20035;-72
2022/01/23 15:39:54;;;;;;;54.50;37.83;;;6.60;77.70;;;;;;5052940;28;20418;-72
2022/01/23 15:42:20;;;;;;;57.28;37.45;;;6.60;77.50;;;;;;5048006;28;20055;-71
2022/01/23 15:44:45;;;;;;;50.75;34.30;;;6.50;77.70;;;;;;5054225;28;20099;-71
2022/01/23 15:47:12;;;;;;;50.92;33.67;;;6.50;77.40;;;;;;5052032;28;20032;-70
2022/01/23 15:49:38;;;;;;;50.55;33.00;;;6.50;77.40;;;;;;5054816;28;20043;-72
2022/01/23 15:52:04;;;;;;;50.90;34.42;;;6.50;77.30;;;;;;5055932;28;20044;-71
2022/01/23 15:54:30;;;;;;;56.92;35.80;;;6.50;77.40;;;;;;5051333;28;20047;-71
2022/01/23 15:56:56;;;;;;;49.47;32.55;;;6.50;77.30;;;;;;5053086;28;20040;-71
2022/01/23 15:59:23;;;;;;;50.55;33.55;;;6.50;77.60;;;;;;5036179;28;20434;-71
2022/01/23 16:01:50;;;;;;;47.92;32.00;;;6.40;77.60;;;;;;5049096;28;20041;-72
2022/01/23 16:04:18;;;;;;;45.72;30.27;;;6.40;77.50;;;;;;5060050;28;20142;-72
2022/01/23 16:06:44;;;;;;;51.08;31.20;;;6.40;77.40;;;;;;5049778;28;20457;-72
2022/01/23 16:09:11;;;;;;;48.55;31.88;;;6.40;77.80;;;;;;5050542;28;20028;-72
2022/01/23 16:11:37;;;;;;;47.10;30.33;;;6.40;77.70;;;;;;5055971;28;20029;-72
2022/01/23 16:14:03;;;;;;;49.00;31.17;;;6.40;77.90;;;;;;5057508;28;20037;-72
2022/01/23 16:16:29;;;;;;;48.20;31.00;;;6.30;77.80;;;;;;5049658;28;20040;-72